Vanceboro, North Carolina
Current Conditions -  °F | °C
As of 8:54 AM on Thursday 30 Oct 2014 (Local Time) from KEWN Reporting Station
Few Clouds Few Clouds  
Wind Chill: 58°   Ceiling: Unl
Heat Index: 58°   Visibility: 10mi
Dew Point: 51°   Wind: 9mph
Humidity: 78%   Direction: 10°N
Pressure: 30.03"   Gusts: NA
Location:  35.31°N, 77.15°W
Report Text: KEWN 301254Z 01008KT 10SM FEW036 14/11 A3003 RMK AO2 SLP168 T01440106
Loading
Personal Weather Stations






























Interactive Weather Map
Tropical Storm Tracking
New forecast layout! Learn more

10-Day Weather Forecast

Advertisements
Track Severe Weather on mobile